sensor_id;sensor_type;location;lat;lon;timestamp;pressure;altitude;pressure_sealevel;temperature;humidity
50172;BME280;37125;48.824;2.410;2023-06-04T00:00:13;100948.83;;;25.69;30.88
50172;BME280;37125;48.824;2.410;2023-06-04T00:00:44;100943.58;;;25.67;30.86
50172;BME280;37125;48.824;2.410;2023-06-04T00:01:14;100945.61;;;25.70;30.82
50172;BME280;37125;48.824;2.410;2023-06-04T00:01:45;100946.58;;;25.77;30.67
50172;BME280;37125;48.824;2.410;2023-06-04T00:02:15;100948.23;;;25.77;30.63
50172;BME280;37125;48.824;2.410;2023-06-04T00:02:46;100952.66;;;25.82;30.58
50172;BME280;37125;48.824;2.410;2023-06-04T00:03:17;100948.17;;;25.84;30.55
50172;BME280;37125;48.824;2.410;2023-06-04T00:03:47;100942.33;;;25.79;30.63
50172;BME280;37125;48.824;2.410;2023-06-04T00:04:18;100941.66;;;25.72;30.76
50172;BME280;37125;48.824;2.410;2023-06-04T00:04:48;100944.13;;;25.71;30.78
50172;BME280;37125;48.824;2.410;2023-06-04T00:05:19;100940.04;;;25.79;30.71
50172;BME280;37125;48.824;2.410;2023-06-04T00:05:50;100945.08;;;25.82;30.68
50172;BME280;37125;48.824;2.410;2023-06-04T00:06:20;100948.87;;;25.79;30.70
50172;BME280;37125;48.824;2.410;2023-06-04T00:06:51;100949.74;;;25.78;30.73
50172;BME280;37125;48.824;2.410;2023-06-04T00:07:21;100947.28;;;25.84;30.69
50172;BME280;37125;48.824;2.410;2023-06-04T00:07:52;100952.40;;;25.83;30.67
50172;BME280;37125;48.824;2.410;2023-06-04T00:08:23;100958.14;;;25.77;30.74
50172;BME280;37125;48.824;2.410;2023-06-04T00:08:53;100940.05;;;25.72;30.78
50172;BME280;37125;48.824;2.410;2023-06-04T00:09:24;100950.69;;;25.70;30.82
50172;BME280;37125;48.824;2.410;2023-06-04T00:09:54;100946.45;;;25.77;30.64
50172;BME280;37125;48.824;2.410;2023-06-04T00:10:25;100944.68;;;25.75;30.62
50172;BME280;37125;48.824;2.410;2023-06-04T00:10:56;100938.96;;;25.72;30.58
50172;BME280;37125;48.824;2.410;2023-06-04T00:11:26;100937.16;;;25.63;30.67
50172;BME280;37125;48.824;2.410;2023-06-04T00:11:57;100940.88;;;25.64;30.65
50172;BME280;37125;48.824;2.410;2023-06-04T00:12:28;100936.96;;;25.69;30.56
50172;BME280;37125;48.824;2.410;2023-06-04T00:12:58;100936.25;;;25.68;30.56
50172;BME280;37125;48.824;2.410;2023-06-04T00:13:29;100942.19;;;25.70;30.54
50172;BME280;37125;48.824;2.410;2023-06-04T00:13:59;100947.30;;;25.70;30.55
50172;BME280;37125;48.824;2.410;2023-06-04T00:14:30;100942.49;;;25.80;30.46
50172;BME280;37125;48.824;2.410;2023-06-04T00:15:01;100944.21;;;25.76;30.53
50172;BME280;37125;48.824;2.410;2023-06-04T00:15:32;100942.29;;;25.72;30.58
50172;BME280;37125;48.824;2.410;2023-06-04T00:16:03;100943.21;;;25.71;30.59
50172;BME280;37125;48.824;2.410;2023-06-04T00:16:33;100957.37;;;25.72;30.59
50172;BME280;37125;48.824;2.410;2023-06-04T00:17:04;100949.88;;;25.82;30.45
50172;BME280;37125;48.824;2.410;2023-06-04T00:17:35;100939.21;;;25.74;30.55
50172;BME280;37125;48.824;2.410;2023-06-04T00:18:06;100940.03;;;25.71;30.58
50172;BME280;37125;48.824;2.410;2023-06-04T00:18:36;100942.35;;;25.63;30.69
50172;BME280;37125;48.824;2.410;2023-06-04T00:19:07;100940.55;;;25.56;30.79
50172;BME280;37125;48.824;2.410;2023-06-04T00:19:38;100939.20;;;25.61;30.68
50172;BME280;37125;48.824;2.410;2023-06-04T00:20:10;100940.33;;;25.66;30.56
50172;BME280;37125;48.824;2.410;2023-06-04T00:20:41;100937.92;;;25.66;30.53
50172;BME280;37125;48.824;2.410;2023-06-04T00:21:12;100945.25;;;25.62;30.56
50172;BME280;37125;48.824;2.410;2023-06-04T00:21:42;100939.29;;;25.56;30.64
50172;BME280;37125;48.824;2.410;2023-06-04T00:22:13;100939.38;;;25.59;30.63
50172;BME280;37125;48.824;2.410;2023-06-04T00:22:44;100935.97;;;25.64;30.53
50172;BME280;37125;48.824;2.410;2023-06-04T00:23:14;100948.34;;;25.55;30.63
50172;BME280;37125;48.824;2.410;2023-06-04T00:23:45;100938.10;;;25.60;30.60
50172;BME280;37125;48.824;2.410;2023-06-04T00:24:16;100938.01;;;25.68;30.46
50172;BME280;37125;48.824;2.410;2023-06-04T00:24:46;100937.12;;;25.66;30.50
50172;BME280;37125;48.824;2.410;2023-06-04T00:25:17;100939.92;;;25.69;30.45
50172;BME280;37125;48.824;2.410;2023-06-04T00:25:47;100934.06;;;25.66;30.47
50172;BME280;37125;48.824;2.410;2023-06-04T00:26:18;100940.86;;;25.74;30.36
50172;BME280;37125;48.824;2.410;2023-06-04T00:26:49;100943.01;;;25.78;30.33
50172;BME280;37125;48.824;2.410;2023-06-04T00:27:19;100942.63;;;25.73;30.37
50172;BME280;37125;48.824;2.410;2023-06-04T00:27:51;100942.42;;;25.73;30.39
50172;BME280;37125;48.824;2.410;2023-06-04T00:28:22;100943.69;;;25.71;30.48
50172;BME280;37125;48.824;2.410;2023-06-04T00:28:54;100946.07;;;25.72;30.48
50172;BME280;37125;48.824;2.410;2023-06-04T00:29:24;100947.53;;;25.68;30.55
50172;BME280;37125;48.824;2.410;2023-06-04T00:29:55;100943.95;;;25.63;30.62
50172;BME280;37125;48.824;2.410;2023-06-04T00:30:25;100945.71;;;25.68;30.58
50172;BME280;37125;48.824;2.410;2023-06-04T00:30:56;100943.04;;;25.64;30.64
50172;BME280;37125;48.824;2.410;2023-06-04T00:31:27;100939.25;;;25.64;30.64
50172;BME280;37125;48.824;2.410;2023-06-04T00:31:57;100957.63;;;25.63;30.65
50172;BME280;37125;48.824;2.410;2023-06-04T00:32:28;100942.00;;;25.67;30.55
50172;BME280;37125;48.824;2.410;2023-06-04T00:32:58;100941.98;;;25.68;30.56
50172;BME280;37125;48.824;2.410;2023-06-04T00:33:29;100946.09;;;25.63;30.61
50172;BME280;37125;48.824;2.410;2023-06-04T00:34:00;100940.49;;;25.69;30.51
50172;BME280;37125;48.824;2.410;2023-06-04T00:34:31;100943.64;;;25.82;30.30
50172;BME280;37125;48.824;2.410;2023-06-04T00:35:02;100947.08;;;25.78;30.33
50172;BME280;37125;48.824;2.410;2023-06-04T00:35:33;100939.99;;;25.69;30.45
50172;BME280;37125;48.824;2.410;2023-06-04T00:36:03;100944.22;;;25.66;30.50
50172;BME280;37125;48.824;2.410;2023-06-04T00:36:34;100950.56;;;25.66;30.48
50172;BME280;37125;48.824;2.410;2023-06-04T00:37:05;100954.45;;;25.62;30.55
50172;BME280;37125;48.824;2.410;2023-06-04T00:37:35;100941.47;;;25.60;30.63
50172;BME280;37125;48.824;2.410;2023-06-04T00:38:06;100940.75;;;25.62;30.57
50172;BME280;37125;48.824;2.410;2023-06-04T00:38:36;100941.63;;;25.79;30.36
50172;BME280;37125;48.824;2.410;2023-06-04T00:39:07;100939.64;;;25.73;30.37
50172;BME280;37125;48.824;2.410;2023-06-04T00:39:37;100944.92;;;25.73;30.39
50172;BME280;37125;48.824;2.410;2023-06-04T00:40:09;100946.76;;;25.83;30.22
50172;BME280;37125;48.824;2.410;2023-06-04T00:40:39;100950.48;;;25.76;30.30
50172;BME280;37125;48.824;2.410;2023-06-04T00:41:10;100946.94;;;25.72;30.36
50172;BME280;37125;48.824;2.410;2023-06-04T00:41:40;100943.47;;;25.62;30.51
50172;BME280;37125;48.824;2.410;2023-06-04T00:42:11;100942.94;;;25.62;30.55
50172;BME280;37125;48.824;2.410;2023-06-04T00:42:42;100938.96;;;25.65;30.43
50172;BME280;37125;48.824;2.410;2023-06-04T00:43:12;100938.71;;;25.64;30.40
50172;BME280;37125;48.824;2.410;2023-06-04T00:43:43;100940.44;;;25.70;30.31
50172;BME280;37125;48.824;2.410;2023-06-04T00:44:13;100953.87;;;25.82;30.16
50172;BME280;37125;48.824;2.410;2023-06-04T00:44:44;100944.69;;;25.83;30.10
50172;BME280;37125;48.824;2.410;2023-06-04T00:45:15;100950.39;;;25.77;30.21
50172;BME280;37125;48.824;2.410;2023-06-04T00:45:45;100966.61;;;25.75;30.25
50172;BME280;37125;48.824;2.410;2023-06-04T00:46:16;100938.28;;;25.68;30.37
50172;BME280;37125;48.824;2.410;2023-06-04T00:46:47;100944.61;;;25.60;30.51
50172;BME280;37125;48.824;2.410;2023-06-04T00:47:20;100942.00;;;25.65;30.49
50172;BME280;37125;48.824;2.410;2023-06-04T00:47:51;100940.75;;;25.69;30.35
50172;BME280;37125;48.824;2.410;2023-06-04T00:48:21;100947.42;;;25.63;30.46
50172;BME280;37125;48.824;2.410;2023-06-04T00:48:52;100942.91;;;25.65;30.39
50172;BME280;37125;48.824;2.410;2023-06-04T00:49:23;100941.71;;;25.61;30.44
50172;BME280;37125;48.824;2.410;2023-06-04T00:49:56;100949.77;;;25.67;30.36
50172;BME280;37125;48.824;2.410;2023-06-04T00:50:27;100943.36;;;25.59;30.45
50172;BME280;37125;48.824;2.410;2023-06-04T00:50:58;100938.24;;;25.59;30.48
50172;BME280;37125;48.824;2.410;2023-06-04T00:51:30;100941.42;;;25.64;30.42
50172;BME280;37125;48.824;2.410;2023-06-04T00:52:01;100934.58;;;25.63;30.42
50172;BME280;37125;48.824;2.410;2023-06-04T00:52:33;100935.51;;;25.57;30.50
50172;BME280;37125;48.824;2.410;2023-06-04T00:53:04;100941.99;;;25.60;30.48
50172;BME280;37125;48.824;2.410;2023-06-04T00:53:35;100937.23;;;25.65;30.41
50172;BME280;37125;48.824;2.410;2023-06-04T00:54:07;100936.91;;;25.60;30.45
50172;BME280;37125;48.824;2.410;2023-06-04T00:54:37;100936.20;;;25.70;30.30
50172;BME280;37125;48.824;2.410;2023-06-04T00:55:09;100944.16;;;25.64;30.38
50172;BME280;37125;48.824;2.410;2023-06-04T00:55:40;100934.75;;;25.68;30.27
50172;BME280;37125;48.824;2.410;2023-06-04T00:56:12;100943.74;;;25.60;30.40
50172;BME280;37125;48.824;2.410;2023-06-04T00:56:43;100940.66;;;25.65;30.33
50172;BME280;37125;48.824;2.410;2023-06-04T00:57:14;100940.12;;;25.66;30.32
50172;BME280;37125;48.824;2.410;2023-06-04T00:57:44;100936.89;;;25.65;30.37
50172;BME280;37125;48.824;2.410;2023-06-04T00:58:15;100939.43;;;25.70;30.28
50172;BME280;37125;48.824;2.410;2023-06-04T00:58:46;100939.93;;;25.61;30.38
50172;BME280;37125;48.824;2.410;2023-06-04T00:59:17;100938.96;;;25.65;30.35
50172;BME280;37125;48.824;2.410;2023-06-04T00:59:48;100946.72;;;25.72;30.26
50172;BME280;37125;48.824;2.410;2023-06-04T01:00:19;100940.07;;;25.78;30.21
50172;BME280;37125;48.824;2.410;2023-06-04T01:00:51;100938.86;;;25.69;30.32
50172;BME280;37125;48.824;2.410;2023-06-04T01:01:28;100937.73;;;25.67;30.35
50172;BME280;37125;48.824;2.410;2023-06-04T01:02:05;100939.55;;;25.78;30.24
50172;BME280;37125;48.824;2.410;2023-06-04T01:02:38;100939.39;;;25.74;30.28
50172;BME280;37125;48.824;2.410;2023-06-04T01:03:13;100941.67;;;25.80;30.19
50172;BME280;37125;48.824;2.410;2023-06-04T01:03:47;100938.99;;;25.67;30.38
50172;BME280;37125;48.824;2.410;2023-06-04T01:04:25;100941.99;;;25.69;30.36
50172;BME280;37125;48.824;2.410;2023-06-04T01:05:04;100938.73;;;25.68;30.36
50172;BME280;37125;48.824;2.410;2023-06-04T01:05:40;100952.60;;;25.64;30.45
50172;BME280;37125;48.824;2.410;2023-06-04T01:06:18;100940.76;;;25.67;30.41
50172;BME280;37125;48.824;2.410;2023-06-04T01:06:53;100944.31;;;25.67;30.41
50172;BME280;37125;48.824;2.410;2023-06-04T01:07:26;100939.27;;;25.66;30.42
50172;BME280;37125;48.824;2.410;2023-06-04T01:07:58;100940.21;;;25.66;30.44
50172;BME280;37125;48.824;2.410;2023-06-04T01:08:29;100935.42;;;25.66;30.42
50172;BME280;37125;48.824;2.410;2023-06-04T01:09:00;100946.10;;;25.69;30.40
50172;BME280;37125;48.824;2.410;2023-06-04T01:09:31;100943.40;;;25.74;30.32
50172;BME280;37125;48.824;2.410;2023-06-04T01:10:03;100944.45;;;25.66;30.45
50172;BME280;37125;48.824;2.410;2023-06-04T01:10:33;100943.95;;;25.73;30.41
50172;BME280;37125;48.824;2.410;2023-06-04T01:11:04;100946.48;;;25.84;30.26
50172;BME280;37125;48.824;2.410;2023-06-04T01:11:36;100945.54;;;25.76;30.34
50172;BME280;37125;48.824;2.410;2023-06-04T01:12:07;100940.27;;;25.73;30.39
50172;BME280;37125;48.824;2.410;2023-06-04T01:12:39;100949.00;;;25.58;30.60
50172;BME280;37125;48.824;2.410;2023-06-04T01:13:10;100947.57;;;25.58;30.60
50172;BME280;37125;48.824;2.410;2023-06-04T01:13:41;100950.41;;;25.60;30.58
50172;BME280;37125;48.824;2.410;2023-06-04T01:14:11;100942.21;;;25.67;30.46
50172;BME280;37125;48.824;2.410;2023-06-04T01:14:43;100946.19;;;25.65;30.44
50172;BME280;37125;48.824;2.410;2023-06-04T01:15:13;100938.87;;;25.64;30.41
50172;BME280;37125;48.824;2.410;2023-06-04T01:15:44;100939.61;;;25.66;30.39
50172;BME280;37125;48.824;2.410;2023-06-04T01:16:15;100943.61;;;25.63;30.43
50172;BME280;37125;48.824;2.410;2023-06-04T01:16:49;100940.42;;;25.60;30.48
50172;BME280;37125;48.824;2.410;2023-06-04T01:17:29;100951.10;;;25.56;30.56
50172;BME280;37125;48.824;2.410;2023-06-04T01:18:02;100943.33;;;25.52;30.62
50172;BME280;37125;48.824;2.410;2023-06-04T01:18:36;100941.07;;;25.60;30.54
50172;BME280;37125;48.824;2.410;2023-06-04T01:19:16;100946.27;;;25.74;30.30
50172;BME280;37125;48.824;2.410;2023-06-04T01:20:05;100939.65;;;25.69;30.31
50172;BME280;37125;48.824;2.410;2023-06-04T01:20:40;100942.07;;;25.73;30.29
50172;BME280;37125;48.824;2.410;2023-06-04T01:21:12;100940.93;;;25.64;30.36
50172;BME280;37125;48.824;2.410;2023-06-04T01:21:43;100942.24;;;25.60;30.41
50172;BME280;37125;48.824;2.410;2023-06-04T01:22:20;100942.71;;;25.57;30.47
50172;BME280;37125;48.824;2.410;2023-06-04T01:23:10;100939.52;;;25.70;30.28
50172;BME280;37125;48.824;2.410;2023-06-04T01:23:47;100941.37;;;25.71;30.24
50172;BME280;37125;48.824;2.410;2023-06-04T01:24:21;100940.82;;;25.72;30.25
50172;BME280;37125;48.824;2.410;2023-06-04T01:24:59;100941.05;;;25.68;30.29
50172;BME280;37125;48.824;2.410;2023-06-04T01:25:34;100946.64;;;25.71;30.23
50172;BME280;37125;48.824;2.410;2023-06-04T01:26:05;100943.42;;;25.68;30.28
50172;BME280;37125;48.824;2.410;2023-06-04T01:26:36;100941.49;;;25.67;30.30
50172;BME280;37125;48.824;2.410;2023-06-04T01:27:07;100942.10;;;25.62;30.35
50172;BME280;37125;48.824;2.410;2023-06-04T01:27:38;100941.61;;;25.63;30.33
50172;BME280;37125;48.824;2.410;2023-06-04T01:28:11;100941.26;;;25.58;30.40
50172;BME280;37125;48.824;2.410;2023-06-04T01:28:42;100942.03;;;25.62;30.38
50172;BME280;37125;48.824;2.410;2023-06-04T01:29:14;100940.71;;;25.62;30.37
50172;BME280;37125;48.824;2.410;2023-06-04T01:29:45;100941.71;;;25.62;30.40
50172;BME280;37125;48.824;2.410;2023-06-04T01:30:16;100954.19;;;25.76;30.26
50172;BME280;37125;48.824;2.410;2023-06-04T01:30:47;100944.41;;;25.84;30.13
50172;BME280;37125;48.824;2.410;2023-06-04T01:31:18;100944.41;;;25.76;30.21
50172;BME280;37125;48.824;2.410;2023-06-04T01:31:50;100941.67;;;25.76;30.23
50172;BME280;37125;48.824;2.410;2023-06-04T01:32:23;100940.83;;;25.66;30.35
50172;BME280;37125;48.824;2.410;2023-06-04T01:32:54;100949.49;;;25.72;30.25
50172;BME280;37125;48.824;2.410;2023-06-04T01:33:25;100941.89;;;25.63;30.37
50172;BME280;37125;48.824;2.410;2023-06-04T01:33:56;100937.67;;;25.61;30.42
50172;BME280;37125;48.824;2.410;2023-06-04T01:34:27;100940.32;;;25.58;30.45
50172;BME280;37125;48.824;2.410;2023-06-04T01:34:58;100942.57;;;25.61;30.44
50172;BME280;37125;48.824;2.410;2023-06-04T01:35:29;100939.43;;;25.63;30.42
50172;BME280;37125;48.824;2.410;2023-06-04T01:36:00;100940.38;;;25.73;30.24
50172;BME280;37125;48.824;2.410;2023-06-04T01:36:31;100937.83;;;25.67;30.31
50172;BME280;37125;48.824;2.410;2023-06-04T01:37:01;100939.98;;;25.73;30.25
50172;BME280;37125;48.824;2.410;2023-06-04T01:37:32;100936.08;;;25.69;30.29
50172;BME280;37125;48.824;2.410;2023-06-04T01:38:02;100938.89;;;25.69;30.31
50172;BME280;37125;48.824;2.410;2023-06-04T01:38:33;100942.03;;;25.64;30.38
50172;BME280;37125;48.824;2.410;2023-06-04T01:39:04;100941.94;;;25.63;30.39
50172;BME280;37125;48.824;2.410;2023-06-04T01:39:34;100947.07;;;25.67;30.36
50172;BME280;37125;48.824;2.410;2023-06-04T01:40:06;100943.05;;;25.66;30.37
50172;BME280;37125;48.824;2.410;2023-06-04T01:40:37;100940.79;;;25.62;30.41
50172;BME280;37125;48.824;2.410;2023-06-04T01:41:07;100942.12;;;25.59;30.48
50172;BME280;37125;48.824;2.410;2023-06-04T01:41:38;100940.29;;;25.59;30.48
50172;BME280;37125;48.824;2.410;2023-06-04T01:42:08;100941.85;;;25.59;30.49
50172;BME280;37125;48.824;2.410;2023-06-04T01:42:40;100939.67;;;25.57;30.50
50172;BME280;37125;48.824;2.410;2023-06-04T01:43:11;100943.96;;;25.60;30.46
50172;BME280;37125;48.824;2.410;2023-06-04T01:43:41;100944.87;;;25.58;30.45
50172;BME280;37125;48.824;2.410;2023-06-04T01:44:12;100944.72;;;25.58;30.48
50172;BME280;37125;48.824;2.410;2023-06-04T01:44:42;100945.62;;;25.61;30.45
50172;BME280;37125;48.824;2.410;2023-06-04T01:45:13;100944.17;;;25.55;30.55
50172;BME280;37125;48.824;2.410;2023-06-04T01:45:44;100944.04;;;25.63;30.47
50172;BME280;37125;48.824;2.410;2023-06-04T01:46:14;100944.61;;;25.58;30.52
50172;BME280;37125;48.824;2.410;2023-06-04T01:46:45;100944.56;;;25.59;30.51
50172;BME280;37125;48.824;2.410;2023-06-04T01:47:15;100950.13;;;25.60;30.52
50172;BME280;37125;48.824;2.410;2023-06-04T01:47:46;100955.44;;;25.57;30.53
50172;BME280;37125;48.824;2.410;2023-06-04T01:48:17;100947.81;;;25.51;30.63
50172;BME280;37125;48.824;2.410;2023-06-04T01:48:47;100945.29;;;25.54;30.60
50172;BME280;37125;48.824;2.410;2023-06-04T01:49:18;100942.94;;;25.65;30.47
50172;BME280;37125;48.824;2.410;2023-06-04T01:49:48;100945.88;;;25.76;30.26
50172;BME280;37125;48.824;2.410;2023-06-04T01:50:19;100945.11;;;25.68;30.32
50172;BME280;37125;48.824;2.410;2023-06-04T01:50:50;100946.57;;;25.63;30.39
50172;BME280;37125;48.824;2.410;2023-06-04T01:51:20;100947.82;;;25.58;30.50
50172;BME280;37125;48.824;2.410;2023-06-04T01:51:51;100943.01;;;25.61;30.48
50172;BME280;37125;48.824;2.410;2023-06-04T01:52:22;100944.15;;;25.69;30.33
50172;BME280;37125;48.824;2.410;2023-06-04T01:52:53;100945.68;;;25.69;30.35
50172;BME280;37125;48.824;2.410;2023-06-04T01:53:24;100944.34;;;25.70;30.32
50172;BME280;37125;48.824;2.410;2023-06-04T01:53:54;100947.00;;;25.63;30.44
50172;BME280;37125;48.824;2.410;2023-06-04T01:54:25;100943.58;;;25.62;30.47
50172;BME280;37125;48.824;2.410;2023-06-04T01:54:55;100945.44;;;25.58;30.56
50172;BME280;37125;48.824;2.410;2023-06-04T01:55:26;100945.10;;;25.71;30.38
50172;BME280;37125;48.824;2.410;2023-06-04T01:55:57;100947.49;;;25.70;30.44
50172;BME280;37125;48.824;2.410;2023-06-04T01:56:27;100948.12;;;25.67;30.43
50172;BME280;37125;48.824;2.410;2023-06-04T01:56:58;100949.52;;;25.66;30.45
50172;BME280;37125;48.824;2.410;2023-06-04T01:57:28;100950.09;;;25.58;30.57
50172;BME280;37125;48.824;2.410;2023-06-04T01:57:59;100948.57;;;25.60;30.53
50172;BME280;37125;48.824;2.410;2023-06-04T01:58:30;100950.01;;;25.51;30.66
50172;BME280;37125;48.824;2.410;2023-06-04T01:59:01;100946.26;;;25.52;30.62
50172;BME280;37125;48.824;2.410;2023-06-04T01:59:31;100947.43;;;25.63;30.46
50172;BME280;37125;48.824;2.410;2023-06-04T02:00:03;100950.73;;;25.74;30.27
50172;BME280;37125;48.824;2.410;2023-06-04T02:00:33;100952.31;;;25.70;30.29
50172;BME280;37125;48.824;2.410;2023-06-04T02:01:04;100943.82;;;25.68;30.30
50172;BME280;37125;48.824;2.410;2023-06-04T02:01:34;100947.15;;;25.66;30.32
50172;BME280;37125;48.824;2.410;2023-06-04T02:02:05;100950.46;;;25.65;30.35
50172;BME280;37125;48.824;2.410;2023-06-04T02:02:36;100952.69;;;25.66;30.34
50172;BME280;37125;48.824;2.410;2023-06-04T02:03:07;100953.20;;;25.62;30.40
50172;BME280;37125;48.824;2.410;2023-06-04T02:03:38;100950.31;;;25.63;30.43
50172;BME280;37125;48.824;2.410;2023-06-04T02:04:08;100952.71;;;25.62;30.46
50172;BME280;37125;48.824;2.410;2023-06-04T02:04:39;100953.45;;;25.58;30.50
50172;BME280;37125;48.824;2.410;2023-06-04T02:05:10;100955.41;;;25.62;30.45
50172;BME280;37125;48.824;2.410;2023-06-04T02:05:41;100954.30;;;25.60;30.50
50172;BME280;37125;48.824;2.410;2023-06-04T02:06:11;100953.52;;;25.59;30.54
50172;BME280;37125;48.824;2.410;2023-06-04T02:06:42;100955.16;;;25.64;30.47
50172;BME280;37125;48.824;2.410;2023-06-04T02:07:13;100959.78;;;25.63;30.49
50172;BME280;37125;48.824;2.410;2023-06-04T02:07:44;100956.67;;;25.60;30.54
50172;BME280;37125;48.824;2.410;2023-06-04T02:08:16;100956.53;;;25.60;30.57
50172;BME280;37125;48.824;2.410;2023-06-04T02:08:46;100956.11;;;25.53;30.65
50172;BME280;37125;48.824;2.410;2023-06-04T02:09:17;100955.87;;;25.50;30.67
50172;BME280;37125;48.824;2.410;2023-06-04T02:09:48;100955.97;;;25.48;30.72
50172;BME280;37125;48.824;2.410;2023-06-04T02:10:19;100958.64;;;25.52;30.66
50172;BME280;37125;48.824;2.410;2023-06-04T02:10:50;100957.97;;;25.51;30.67
50172;BME280;37125;48.824;2.410;2023-06-04T02:11:21;100959.46;;;25.63;30.55
50172;BME280;37125;48.824;2.410;2023-06-04T02:11:51;100958.59;;;25.64;30.51
50172;BME280;37125;48.824;2.410;2023-06-04T02:12:22;100958.63;;;25.69;30.43
50172;BME280;37125;48.824;2.410;2023-06-04T02:12:54;100961.23;;;25.67;30.47
50172;BME280;37125;48.824;2.410;2023-06-04T02:13:25;100963.17;;;25.76;30.34
50172;BME280;37125;48.824;2.410;2023-06-04T02:13:56;100963.49;;;25.67;30.46
50172;BME280;37125;48.824;2.410;2023-06-04T02:14:27;100966.41;;;25.78;30.34
50172;BME280;37125;48.824;2.410;2023-06-04T02:14:57;100963.25;;;25.64;30.53
50172;BME280;37125;48.824;2.410;2023-06-04T02:15:29;100960.19;;;25.55;30.66
50172;BME280;37125;48.824;2.410;2023-06-04T02:16:00;100960.43;;;25.56;30.65
50172;BME280;37125;48.824;2.410;2023-06-04T02:16:31;100961.72;;;25.56;30.61
50172;BME280;37125;48.824;2.410;2023-06-04T02:17:01;100962.91;;;25.61;30.54
50172;BME280;37125;48.824;2.410;2023-06-04T02:17:32;100966.56;;;25.59;30.56
50172;BME280;37125;48.824;2.410;2023-06-04T02:18:12;100965.45;;;25.65;30.46
50172;BME280;37125;48.824;2.410;2023-06-04T02:18:43;100962.83;;;25.62;30.52
50172;BME280;37125;48.824;2.410;2023-06-04T02:19:14;100961.36;;;25.65;30.46
50172;BME280;37125;48.824;2.410;2023-06-04T02:19:45;100961.32;;;25.61;30.51
50172;BME280;37125;48.824;2.410;2023-06-04T02:20:16;100958.17;;;25.55;30.58
50172;BME280;37125;48.824;2.410;2023-06-04T02:20:47;100962.10;;;25.59;30.53
50172;BME280;37125;48.824;2.410;2023-06-04T02:21:18;100964.07;;;25.65;30.45
50172;BME280;37125;48.824;2.410;2023-06-04T02:21:49;100963.16;;;25.69;30.37
50172;BME280;37125;48.824;2.410;2023-06-04T02:22:19;100962.17;;;25.80;30.23
50172;BME280;37125;48.824;2.410;2023-06-04T02:22:50;100960.38;;;25.73;30.30
50172;BME280;37125;48.824;2.410;2023-06-04T02:23:21;100962.05;;;25.63;30.45
50172;BME280;37125;48.824;2.410;2023-06-04T02:23:51;100958.77;;;25.60;30.49
50172;BME280;37125;48.824;2.410;2023-06-04T02:24:22;100958.70;;;25.58;30.48
50172;BME280;37125;48.824;2.410;2023-06-04T02:24:52;100957.71;;;25.52;30.57
50172;BME280;37125;48.824;2.410;2023-06-04T02:25:23;100963.90;;;25.58;30.50
50172;BME280;37125;48.824;2.410;2023-06-04T02:25:54;100961.25;;;25.56;30.52
50172;BME280;37125;48.824;2.410;2023-06-04T02:26:24;100959.92;;;25.61;30.47
50172;BME280;37125;48.824;2.410;2023-06-04T02:26:55;100958.65;;;25.68;30.38
50172;BME280;37125;48.824;2.410;2023-06-04T02:27:25;100961.62;;;25.67;30.38
50172;BME280;37125;48.824;2.410;2023-06-04T02:27:56;100961.33;;;25.65;30.40
50172;BME280;37125;48.824;2.410;2023-06-04T02:28:27;100962.25;;;25.59;30.48
50172;BME280;37125;48.824;2.410;2023-06-04T02:28:57;100960.28;;;25.59;30.48
50172;BME280;37125;48.824;2.410;2023-06-04T02:29:28;100962.68;;;25.68;30.36
50172;BME280;37125;48.824;2.410;2023-06-04T02:29:58;100963.96;;;25.64;30.39
50172;BME280;37125;48.824;2.410;2023-06-04T02:30:29;100960.15;;;25.59;30.44
50172;BME280;37125;48.824;2.410;2023-06-04T02:30:59;100963.24;;;25.61;30.45
50172;BME280;37125;48.824;2.410;2023-06-04T02:31:30;100963.62;;;25.63;30.38
50172;BME280;37125;48.824;2.410;2023-06-04T02:32:00;100973.17;;;25.59;30.41
50172;BME280;37125;48.824;2.410;2023-06-04T02:32:31;100973.01;;;25.69;30.33
50172;BME280;37125;48.824;2.410;2023-06-04T02:33:02;100974.43;;;25.75;30.22
50172;BME280;37125;48.824;2.410;2023-06-04T02:33:33;100973.91;;;25.83;30.15
50172;BME280;37125;48.824;2.410;2023-06-04T02:34:03;100975.41;;;25.85;30.10
50172;BME280;37125;48.824;2.410;2023-06-04T02:34:34;100975.85;;;25.76;30.21
50172;BME280;37125;48.824;2.410;2023-06-04T02:35:06;100975.74;;;25.75;30.25
50172;BME280;37125;48.824;2.410;2023-06-04T02:35:37;100973.52;;;25.73;30.27
50172;BME280;37125;48.824;2.410;2023-06-04T02:36:08;100972.87;;;25.77;30.26
50172;BME280;37125;48.824;2.410;2023-06-04T02:36:39;100973.47;;;25.81;30.23
50172;BME280;37125;48.824;2.410;2023-06-04T02:37:09;100970.82;;;25.86;30.17
50172;BME280;37125;48.824;2.410;2023-06-04T02:37:40;100972.78;;;25.91;30.09
50172;BME280;37125;48.824;2.410;2023-06-04T02:38:10;100973.43;;;25.96;30.03
50172;BME280;37125;48.824;2.410;2023-06-04T02:38:41;100971.07;;;25.81;30.23
50172;BME280;37125;48.824;2.410;2023-06-04T02:39:11;100972.09;;;25.81;30.26
50172;BME280;37125;48.824;2.410;2023-06-04T02:39:42;100973.62;;;25.95;30.09
50172;BME280;37125;48.824;2.410;2023-06-04T02:40:12;100974.79;;;25.98;30.04
50172;BME280;37125;48.824;2.410;2023-06-04T02:40:43;100973.07;;;25.97;30.09
50172;BME280;37125;48.824;2.410;2023-06-04T02:41:14;100971.72;;;25.91;30.15
50172;BME280;37125;48.824;2.410;2023-06-04T02:41:44;100970.39;;;25.85;30.24
50172;BME280;37125;48.824;2.410;2023-06-04T02:42:15;100972.99;;;25.95;30.13
50172;BME280;37125;48.824;2.410;2023-06-04T02:42:45;100974.97;;;25.91;30.16
50172;BME280;37125;48.824;2.410;2023-06-04T02:43:16;100971.42;;;25.86;30.22
50172;BME280;37125;48.824;2.410;2023-06-04T02:43:47;100973.27;;;25.86;30.24